Time;durP1;ratioP1;P1;durP2;ratioP2;P2;SDS_P1;SDS_P2;PMS_P1;PMS_P2;Temp;Humidity;BMP_temperature;BMP_pressure;BME280_temperature;BME280_humidity;BME280_pressure;Samples;Min_cycle;Max_cycle;Signal;HPM_P1;HPM_P2
2021/04/12 00:00:07;;;;;;;3.22;0.52;;;17.70;53.30;;;;;;10501402;28;20542;-59
2021/04/12 00:05:14;;;;;;;2.60;0.50;;;17.80;53.20;;;;;;10482885;28;20543;-58
2021/04/12 00:10:39;;;;;;;1.67;0.50;;;17.80;52.90;;;;;;10483669;28;20036;-59
2021/04/12 00:15:52;;;;;;;1.80;0.95;;;17.90;52.80;;;;;;10484196;28;20028;-59
2021/04/12 00:21:33;;;;;;;1.35;0.50;;;17.80;52.60;;;;;;10483459;28;20442;-59
2021/04/12 00:27:11;;;;;;;1.98;0.75;;;17.90;52.50;;;;;;10451359;28;20131;-59
2021/04/12 00:32:40;;;;;;;0.75;0.50;;;17.80;52.60;;;;;;10500736;28;20051;-59
2021/04/12 00:38:00;;;;;;;2.20;0.60;;;17.80;52.50;;;;;;10500195;28;20057;-59
2021/04/12 00:43:10;;;;;;;1.60;0.50;;;17.80;52.60;;;;;;10500678;28;20040;-59
2021/04/12 00:48:48;;;;;;;1.92;0.50;;;17.80;52.60;;;;;;10500226;28;20461;-60
2021/04/12 00:54:49;;;;;;;1.52;0.65;;;17.80;52.60;;;;;;10500120;28;20388;-59
2021/04/12 01:00:17;;;;;;;1.35;0.47;;;17.80;52.60;;;;;;10499252;28;20054;-59
2021/04/12 01:06:14;;;;;;;2.25;0.85;;;17.80;52.50;;;;;;10481424;28;20056;-59
2021/04/12 01:11:48;;;;;;;1.23;0.55;;;17.80;52.60;;;;;;10499118;28;20090;-59
2021/04/12 01:18:02;;;;;;;2.22;0.60;;;17.80;52.50;;;;;;10498241;28;20087;-59
2021/04/12 01:23:40;;;;;;;1.30;0.55;;;17.80;52.50;;;;;;10314566;28;20069;-59
2021/04/12 01:29:17;;;;;;;0.75;0.45;;;17.80;52.40;;;;;;10480459;28;20415;-59
2021/04/12 01:34:51;;;;;;;1.23;0.70;;;17.80;52.40;;;;;;10498383;28;20017;-59
2021/04/12 01:40:21;;;;;;;1.70;0.70;;;17.80;52.30;;;;;;10497997;28;20451;-59
2021/04/12 01:45:47;;;;;;;0.90;0.57;;;17.80;52.20;;;;;;10498271;28;20064;-60
2021/04/12 01:51:29;;;;;;;0.63;0.40;;;17.80;52.20;;;;;;10480816;28;20075;-60
2021/04/12 01:57:14;;;;;;;0.57;0.43;;;17.80;52.20;;;;;;10497645;28;20094;-60
2021/04/12 02:02:42;;;;;;;0.93;0.60;;;17.80;52.20;;;;;;10497863;28;20036;-59
2021/04/12 02:08:44;;;;;;;1.60;0.70;;;17.80;52.20;;;;;;10497421;28;20038;-60
2021/04/12 02:14:09;;;;;;;;;;;17.80;52.20;;;;;;10430896;28;20040;-59
2021/04/12 02:19:28;;;;;;;0.93;0.50;;;17.80;52.20;;;;;;10489509;28;20001;-60
2021/04/12 02:25:18;;;;;;;1.02;0.40;;;17.70;52.10;;;;;;10497014;28;20020;-60
2021/04/12 02:30:47;;;;;;;1.85;0.80;;;17.80;52.10;;;;;;10496851;28;20032;-60
2021/04/12 02:36:08;;;;;;;1.67;0.47;;;17.80;52.10;;;;;;10476918;28;20110;-59
2021/04/12 02:41:54;;;;;;;5.05;1.48;;;17.80;52.00;;;;;;10497065;28;20043;-60
2021/04/12 02:47:10;;;;;;;3.08;0.57;;;17.80;52.00;;;;;;10496904;28;20111;-60
2021/04/12 02:52:37;;;;;;;1.77;0.60;;;17.80;51.90;;;;;;10497043;28;20421;-60
2021/04/12 02:58:06;;;;;;;1.25;0.60;;;17.80;51.90;;;;;;10469594;28;20033;-59
2021/04/12 03:03:38;;;;;;;0.77;0.47;;;17.80;51.80;;;;;;10479860;28;20070;-60
2021/04/12 03:09:02;;;;;;;1.98;0.95;;;17.70;51.80;;;;;;10496076;28;20467;-59
2021/04/12 03:14:33;;;;;;;1.02;0.60;;;17.80;51.80;;;;;;10478650;28;20111;-59
2021/04/12 03:20:18;;;;;;;2.10;0.60;;;17.80;51.60;;;;;;10479688;28;20032;-60
2021/04/12 03:26:01;;;;;;;1.15;0.60;;;17.80;51.50;;;;;;10479597;28;20025;-59
2021/04/12 03:31:01;;;;;;;0.68;0.50;;;17.80;51.60;;;;;;10495218;28;20101;-59
2021/04/12 03:36:36;;;;;;;1.23;0.47;;;17.80;51.50;;;;;;10495631;28;20123;-60
2021/04/12 03:41:59;;;;;;;1.25;0.75;;;17.80;51.50;;;;;;10502492;28;20039;-59
2021/04/12 03:47:02;;;;;;;1.52;0.50;;;17.80;51.50;;;;;;10497098;28;20028;-59
2021/04/12 03:52:59;;;;;;;0.70;0.40;;;17.80;51.60;;;;;;10502604;28;20021;-60
2021/04/12 03:58:50;;;;;;;0.82;0.52;;;17.80;51.50;;;;;;10463486;28;20048;-60
2021/04/12 04:04:14;;;;;;;0.68;0.50;;;17.90;51.60;;;;;;10502103;28;20485;-59
2021/04/12 04:10:02;;;;;;;0.95;0.65;;;17.80;51.60;;;;;;10502026;28;20078;-60
2021/04/12 04:15:26;;;;;;;1.00;0.50;;;17.80;51.60;;;;;;10461251;28;20036;-59
2021/04/12 04:20:42;;;;;;;1.10;0.50;;;17.80;51.50;;;;;;10484067;28;20161;-59
2021/04/12 04:26:16;;;;;;;1.17;0.40;;;17.80;51.50;;;;;;10501234;28;20435;-59
2021/04/12 04:31:54;;;;;;;1.00;0.60;;;17.80;51.50;;;;;;10490398;28;20032;-59
2021/04/12 04:37:24;;;;;;;1.42;0.40;;;17.80;51.50;;;;;;10500144;28;20040;-59
2021/04/12 04:42:43;;;;;;;0.85;0.40;;;17.80;51.40;;;;;;10499315;28;20066;-59
2021/04/12 04:48:33;;;;;;;1.37;0.50;;;17.80;51.50;;;;;;10497771;28;20033;-59
2021/04/12 04:54:07;;;;;;;0.67;0.30;;;17.80;51.40;;;;;;10500366;28;20028;-59
2021/04/12 04:59:46;;;;;;;1.10;0.65;;;17.80;51.40;;;;;;10488199;28;20028;-59
2021/04/12 05:05:11;;;;;;;2.25;0.40;;;17.80;51.40;;;;;;10499851;28;20043;-60
2021/04/12 05:10:42;;;;;;;1.08;0.47;;;17.80;51.40;;;;;;10498200;28;20028;-60
2021/04/12 05:16:07;;;;;;;4.20;0.50;;;17.80;51.60;;;;;;10498275;28;20070;-58
2021/04/12 05:22:05;;;;;;;2.70;0.73;;;17.80;51.90;;;;;;10498581;28;20491;-58
2021/04/12 05:27:57;;;;;;;3.67;0.90;;;17.80;52.50;;;;;;10497373;28;20043;-58
2021/04/12 05:33:25;;;;;;;3.20;0.70;;;17.90;54.20;;;;;;10496829;28;20044;-59
2021/04/12 05:38:54;;;;;;;5.75;1.00;;;17.90;53.30;;;;;;10480021;28;20044;-57
2021/04/12 05:44:36;;;;;;;8.77;0.63;;;17.80;54.40;;;;;;10498200;28;20476;-59
2021/04/12 05:49:48;;;;;;;5.82;1.00;;;17.90;54.70;;;;;;10497774;28;20063;-60
2021/04/12 05:55:43;;;;;;;4.00;1.00;;;17.90;54.50;;;;;;10468400;28;20044;-60
2021/04/12 06:01:42;;;;;;;6.95;1.08;;;17.80;54.10;;;;;;10490589;28;20029;-60
2021/04/12 06:07:23;;;;;;;7.78;1.23;;;17.80;54.00;;;;;;10472017;28;20047;-55
2021/04/12 06:13:06;;;;;;;8.75;1.50;;;17.80;54.30;;;;;;10488305;28;20856;-59
2021/04/12 06:18:50;;;;;;;7.20;1.17;;;17.70;54.00;;;;;;10489064;28;20135;-59
2021/04/12 06:24:27;;;;;;;4.80;0.85;;;17.70;53.70;;;;;;10470458;28;20043;-58
2021/04/12 06:30:00;;;;;;;4.57;1.00;;;17.70;53.60;;;;;;10471948;28;20116;-59
2021/04/12 06:35:20;;;;;;;7.03;1.13;;;17.60;53.50;;;;;;10471301;28;20507;-57
2021/04/12 06:40:33;;;;;;;6.73;1.37;;;17.60;53.60;;;;;;10489548;28;20063;-59
2021/04/12 06:46:23;;;;;;;5.32;0.85;;;17.50;53.50;;;;;;10488811;28;20847;-57
2021/04/12 06:52:20;;;;;;;4.18;1.20;;;17.50;53.50;;;;;;10488655;28;20459;-59
2021/04/12 06:58:03;;;;;;;7.43;1.05;;;17.60;53.80;;;;;;10489683;28;20111;-57
2021/04/12 07:03:56;;;;;;;5.47;0.93;;;17.60;54.00;;;;;;10489184;28;20115;-57
2021/04/12 07:09:52;;;;;;;4.38;1.10;;;17.60;54.20;;;;;;10465349;28;20028;-58
2021/04/12 07:15:15;;;;;;;15.20;1.23;;;17.50;54.10;;;;;;10381426;28;20029;-58
2021/04/12 07:20:45;;;;;;;7.28;1.73;;;17.50;54.60;;;;;;10494452;28;20051;-58
2021/04/12 07:26:07;;;;;;;9.55;1.17;;;17.50;54.00;;;;;;10463230;28;20040;-63
2021/04/12 07:31:38;;;;;;;8.95;1.98;;;17.50;53.80;;;;;;10475020;28;20574;-62
2021/04/12 07:37:37;;;;;;;10.23;1.50;;;17.50;53.80;;;;;;10495037;28;20056;-59
2021/04/12 07:43:35;;;;;;;7.32;1.10;;;17.50;54.40;;;;;;10495360;28;20442;-59
2021/04/12 07:49:00;;;;;;;9.63;1.42;;;17.50;54.30;;;;;;10507502;28;20541;-56
2021/04/12 07:54:36;;;;;;;3.75;1.27;;;17.50;54.10;;;;;;10495894;28;20028;-55
2021/04/12 08:00:23;;;;;;;8.10;1.48;;;17.50;54.20;;;;;;10469996;28;20381;-57
2021/04/12 08:06:20;;;;;;;6.85;1.70;;;17.40;53.90;;;;;;10491478;28;20055;-56
2021/04/12 08:12:18;;;;;;;7.28;1.38;;;17.40;54.00;;;;;;10462950;28;20132;-59
2021/04/12 08:18:07;;;;;;;12.07;1.73;;;17.40;54.60;;;;;;10499028;28;20519;-58
2021/04/12 08:23:45;;;;;;;10.70;2.08;;;17.40;54.80;;;;;;10478501;28;20032;-59
2021/04/12 08:29:16;;;;;;;9.23;1.90;;;17.40;54.50;;;;;;10493778;28;20292;-59
2021/04/12 08:34:57;;;;;;;15.82;2.03;;;17.40;54.40;;;;;;10498253;28;20514;-60
2021/04/12 08:40:42;;;;;;;8.93;1.50;;;17.40;54.80;;;;;;10496287;28;20062;-60
2021/04/12 08:45:54;;;;;;;8.07;1.25;;;17.40;54.80;;;;;;10496718;28;20468;-61
2021/04/12 08:51:40;;;;;;;9.68;2.03;;;17.40;55.50;;;;;;10498424;28;20029;-57
2021/04/12 08:57:08;;;;;;;3.60;1.23;;;17.30;55.20;;;;;;10468644;28;20040;-59
2021/04/12 09:02:58;;;;;;;3.88;1.20;;;17.20;54.80;;;;;;10499461;28;20032;-58
2021/04/12 09:08:18;;;;;;;8.23;1.37;;;17.20;55.00;;;;;;10499687;28;20024;-58
2021/04/12 09:13:21;;;;;;;6.88;1.05;;;17.20;54.60;;;;;;10481495;28;20036;-58
2021/04/12 09:19:06;;;;;;;6.25;0.90;;;17.20;54.40;;;;;;10499199;28;20111;-58
2021/04/12 09:24:13;;;;;;;7.60;1.60;;;17.20;54.50;;;;;;10498796;28;20111;-58
2021/04/12 09:30:12;;;;;;;6.95;1.35;;;17.20;54.30;;;;;;10488673;28;20094;-58
2021/04/12 09:35:45;;;;;;;5.65;1.23;;;17.20;54.20;;;;;;10497654;28;20098;-58
2021/04/12 09:41:41;;;;;;;3.85;1.35;;;17.20;54.00;;;;;;10498299;28;20101;-58
2021/04/12 09:47:06;;;;;;;5.07;2.03;;;17.20;53.80;;;;;;10497581;28;20024;-59
2021/04/12 09:52:30;;;;;;;3.35;0.95;;;17.20;53.70;;;;;;10497511;28;20400;-58
2021/04/12 09:58:33;;;;;;;2.88;1.20;;;17.20;53.70;;;;;;10455796;28;20119;-58
2021/04/12 10:04:20;;;;;;;3.33;1.17;;;17.30;53.60;;;;;;10495618;28;20054;-59
2021/04/12 10:10:01;;;;;;;2.03;0.73;;;17.30;53.50;;;;;;10494054;28;20029;-59
2021/04/12 10:15:26;;;;;;;6.15;1.05;;;17.30;53.40;;;;;;10497245;28;20043;-58
2021/04/12 10:21:04;;;;;;;3.85;1.33;;;17.30;53.00;;;;;;10497571;28;20058;-57
2021/04/12 10:26:12;;;;;;;5.30;1.92;;;17.30;54.00;;;;;;10479428;28;20036;-57
2021/04/12 10:31:33;;;;;;;6.57;1.08;;;17.30;54.20;;;;;;10477487;28;20359;-58
2021/04/12 10:37:05;;;;;;;2.75;0.90;;;17.30;54.50;;;;;;10496644;28;20036;-58
2021/04/12 10:42:38;;;;;;;4.43;0.80;;;17.30;54.70;;;;;;10480220;28;20044;-58
2021/04/12 10:48:18;;;;;;;5.22;1.02;;;17.40;55.10;;;;;;10466755;28;20802;-59
2021/04/12 10:53:54;;;;;;;5.70;1.10;;;17.40;55.60;;;;;;10504063;28;20036;-59
2021/04/12 10:59:37;;;;;;;7.25;1.25;;;17.40;56.10;;;;;;10477691;28;20028;-61
2021/04/12 11:05:24;;;;;;;5.38;0.70;;;17.40;56.20;;;;;;10504229;28;20376;-59
2021/04/12 11:11:04;;;;;;;7.57;1.50;;;17.50;56.10;;;;;;10494808;28;20064;-59
2021/04/12 11:16:30;;;;;;;7.07;0.82;;;17.40;56.60;;;;;;10503906;28;20062;-59
2021/04/12 11:21:46;;;;;;;8.20;1.33;;;17.50;56.90;;;;;;10503846;28;20082;-58
2021/04/12 11:27:16;;;;;;;7.63;1.25;;;17.40;57.30;;;;;;10486794;28;20514;-58
2021/04/12 11:32:33;;;;;;;10.63;1.05;;;17.40;57.10;;;;;;10502694;28;20033;-60
2021/04/12 11:38:05;;;;;;;9.57;1.60;;;17.50;57.20;;;;;;10484882;28;20373;-59
2021/04/12 11:43:16;;;;;;;3.88;1.00;;;17.50;56.80;;;;;;10487693;28;20127;-60
2021/04/12 11:48:23;;;;;;;9.48;1.58;;;17.50;56.80;;;;;;10485683;28;20468;-61
2021/04/12 11:53:26;;;;;;;5.50;0.60;;;17.50;56.60;;;;;;10485576;28;20021;-60
2021/04/12 11:58:52;;;;;;;3.30;0.60;;;17.50;56.60;;;;;;10501861;28;20036;-60
2021/04/12 12:04:16;;;;;;;3.65;0.65;;;17.50;56.40;;;;;;10484602;28;20081;-61
2021/04/12 12:09:37;;;;;;;3.88;0.98;;;17.50;57.10;;;;;;10484789;28;20033;-60
2021/04/12 12:15:02;;;;;;;2.45;0.60;;;17.50;56.50;;;;;;10486226;28;20021;-61
2021/04/12 12:20:16;;;;;;;3.33;0.80;;;17.50;56.40;;;;;;10501282;28;20036;-60
2021/04/12 12:25:45;;;;;;;3.97;1.00;;;17.40;56.40;;;;;;10501687;28;20021;-60
2021/04/12 12:31:30;;;;;;;8.05;1.55;;;17.30;56.60;;;;;;10501301;28;20052;-60
2021/04/12 12:37:18;;;;;;;5.88;1.08;;;17.20;56.60;;;;;;10485515;28;20056;-60
2021/04/12 12:42:37;;;;;;;1.80;0.68;;;17.20;56.70;;;;;;10494297;28;20097;-60
2021/04/12 12:47:40;;;;;;;3.90;0.80;;;17.10;56.80;;;;;;10481675;28;20029;-62
2021/04/12 12:52:53;;;;;;;8.63;0.80;;;17.10;57.00;;;;;;10500188;28;20107;-60
2021/04/12 12:57:57;;;;;;;2.60;0.90;;;17.00;57.20;;;;;;10483246;28;20499;-61
2021/04/12 13:02:58;;;;;;;6.90;0.93;;;17.00;56.80;;;;;;10482751;28;20060;-57
2021/04/12 13:08:14;;;;;;;2.58;0.80;;;17.10;57.50;;;;;;10481834;28;20029;-57
2021/04/12 13:13:22;;;;;;;18.63;2.15;;;17.10;57.30;;;;;;10499130;28;20040;-57
2021/04/12 13:18:29;;;;;;;11.55;1.60;;;17.10;57.50;;;;;;10479343;28;20435;-57
2021/04/12 13:23:54;;;;;;;19.08;2.42;;;17.10;57.50;;;;;;10480938;28;20115;-57
2021/04/12 13:28:58;;;;;;;9.70;1.27;;;17.10;57.70;;;;;;10498367;28;20032;-57
2021/04/12 13:34:46;;;;;;;9.57;1.73;;;17.10;57.70;;;;;;10480812;28;20055;-57
2021/04/12 13:40:08;;;;;;;9.77;1.33;;;17.10;57.80;;;;;;10477502;28;20148;-57
2021/04/12 13:45:11;;;;;;;10.85;2.38;;;17.10;58.20;;;;;;10481165;28;20029;-57
2021/04/12 13:50:38;;;;;;;12.25;2.83;;;17.10;58.50;;;;;;10497770;28;20033;-56
2021/04/12 13:55:54;;;;;;;13.65;1.60;;;17.20;58.30;;;;;;10497757;28;20025;-56
2021/04/12 14:01:23;;;;;;;9.18;1.70;;;17.30;58.30;;;;;;10464040;28;20029;-57
2021/04/12 14:06:29;;;;;;;7.70;1.90;;;17.40;58.20;;;;;;10497385;28;20035;-56
2021/04/12 14:12:03;;;;;;;14.35;1.80;;;17.40;58.40;;;;;;10479615;28;20020;-56
2021/04/12 14:17:46;;;;;;;10.85;2.60;;;17.40;58.30;;;;;;10497195;28;20107;-56
2021/04/12 14:22:51;;;;;;;13.23;1.52;;;17.50;58.90;;;;;;10484919;28;20112;-56
2021/04/12 14:28:15;;;;;;;19.90;4.30;;;17.50;58.70;;;;;;10479280;28;20048;-53
2021/04/12 14:33:24;;;;;;;22.67;1.85;;;17.50;58.70;;;;;;10477656;28;20047;-56
2021/04/12 14:38:25;;;;;;;14.23;1.98;;;17.50;59.00;;;;;;10496960;28;20048;-58
2021/04/12 14:43:30;;;;;;;11.40;2.15;;;17.50;58.60;;;;;;10496788;28;20033;-61
2021/04/12 14:48:43;;;;;;;14.55;2.80;;;17.50;58.40;;;;;;10470281;28;20123;-59
2021/04/12 14:53:48;;;;;;;20.77;3.05;;;17.50;58.30;;;;;;10492718;28;20064;-60
2021/04/12 14:59:02;;;;;;;7.70;0.93;;;17.50;58.00;;;;;;10475422;28;20032;-59
2021/04/12 15:04:15;;;;;;;11.90;2.13;;;17.50;56.70;;;;;;10495799;28;20032;-60
2021/04/12 15:09:52;;;;;;;11.25;1.65;;;17.50;60.00;;;;;;10478169;28;20032;-60
2021/04/12 15:15:20;;;;;;;8.20;1.92;;;17.50;60.40;;;;;;10465529;28;20071;-59
2021/04/12 15:20:41;;;;;;;7.28;1.27;;;17.50;60.10;;;;;;10494561;28;20035;-61
2021/04/12 15:26:28;;;;;;;8.70;2.38;;;17.40;59.80;;;;;;10478997;28;20093;-60
2021/04/12 15:31:37;;;;;;;5.93;1.67;;;17.40;60.80;;;;;;10495168;28;20040;-60
2021/04/12 15:36:48;;;;;;;14.93;2.07;;;17.40;60.80;;;;;;10484279;28;20197;-60
2021/04/12 15:41:52;;;;;;;10.25;1.23;;;17.30;61.20;;;;;;10485231;28;20032;-62
2021/04/12 15:46:59;;;;;;;5.63;1.20;;;17.30;61.50;;;;;;10503527;28;20506;-60
2021/04/12 15:52:18;;;;;;;3.67;0.90;;;17.20;59.20;;;;;;10485464;28;20085;-60
2021/04/12 15:57:21;;;;;;;10.70;2.03;;;17.10;58.90;;;;;;10484422;28;20096;-60
2021/04/12 16:02:38;;;;;;;8.23;1.63;;;17.10;58.90;;;;;;10483898;28;20026;-60
2021/04/12 16:08:23;;;;;;;3.70;1.10;;;17.10;58.80;;;;;;10484279;28;20064;-60
2021/04/12 16:13:54;;;;;;;5.47;1.58;;;17.00;58.80;;;;;;10489218;28;20048;-60
2021/04/12 16:19:10;;;;;;;5.97;0.98;;;17.00;58.70;;;;;;10501551;28;20483;-60
2021/04/12 16:24:26;;;;;;;3.33;0.95;;;17.00;58.70;;;;;;10497688;28;20032;-60
2021/04/12 16:29:48;;;;;;;3.60;1.00;;;17.00;58.90;;;;;;10483117;28;20025;-59
2021/04/12 16:35:01;;;;;;;10.55;1.30;;;17.00;58.50;;;;;;10470048;28;20016;-59
2021/04/12 16:40:06;;;;;;;16.98;2.60;;;17.00;58.60;;;;;;10500854;28;20048;-64
2021/04/12 16:45:27;;;;;;;13.95;2.22;;;17.10;59.00;;;;;;10483059;28;20025;-60
2021/04/12 16:50:38;;;;;;;15.90;2.42;;;17.10;58.80;;;;;;10486658;28;20033;-60
2021/04/12 16:55:48;;;;;;;19.50;2.70;;;17.20;58.70;;;;;;10509397;28;20376;-61
2021/04/12 17:00:59;;;;;;;12.20;2.30;;;17.20;58.50;;;;;;10474954;28;20062;-61
2021/04/12 17:06:19;;;;;;;13.18;1.75;;;17.20;58.40;;;;;;10483182;28;20029;-60
2021/04/12 17:11:30;;;;;;;19.38;2.28;;;17.20;58.20;;;;;;10468817;28;20388;-60
2021/04/12 17:16:41;;;;;;;8.85;1.83;;;17.30;58.30;;;;;;10476098;28;20017;-60
2021/04/12 17:22:09;;;;;;;13.43;2.13;;;17.20;58.60;;;;;;10481459;28;20146;-60
2021/04/12 17:27:39;;;;;;;13.73;2.67;;;17.20;58.50;;;;;;10475092;28;20024;-60
2021/04/12 17:32:53;;;;;;;;;;;17.20;58.80;;;;;;10482268;28;20036;-60
2021/04/12 17:38:09;;;;;;;7.28;2.33;;;17.20;59.20;;;;;;10475921;28;19916;-59
2021/04/12 17:43:18;;;;;;;11.85;2.05;;;17.20;59.50;;;;;;10498277;28;20115;-53
2021/04/12 17:48:46;;;;;;;8.85;1.52;;;17.20;59.00;;;;;;10446776;28;20082;-60
2021/04/12 17:53:59;;;;;;;5.10;1.30;;;17.20;58.80;;;;;;10476293;28;20075;-60
2021/04/12 17:59:12;;;;;;;10.13;1.42;;;17.20;58.50;;;;;;10466711;28;20059;-60
2021/04/12 18:04:27;;;;;;;5.88;1.77;;;17.20;58.30;;;;;;10477260;28;20037;-60
2021/04/12 18:09:44;;;;;;;5.45;1.08;;;17.20;58.20;;;;;;10466932;28;20100;-60
2021/04/12 18:15:01;;;;;;;4.97;1.23;;;17.20;57.90;;;;;;10487391;28;20025;-59
2021/04/12 18:20:29;;;;;;;2.78;1.30;;;17.20;57.90;;;;;;10486216;28;20158;-58
2021/04/12 18:25:38;;;;;;;5.07;1.33;;;17.30;57.80;;;;;;10488032;28;20066;-58
2021/04/12 18:31:04;;;;;;;5.78;1.10;;;17.20;57.80;;;;;;10469572;28;20028;-59
2021/04/12 18:36:13;;;;;;;6.70;1.13;;;17.20;57.90;;;;;;10467344;28;20068;-59
2021/04/12 18:41:50;;;;;;;3.72;1.10;;;17.20;57.90;;;;;;10469697;28;20127;-59
2021/04/12 18:46:59;;;;;;;3.60;0.70;;;17.30;58.00;;;;;;10466709;28;20055;-59
2021/04/12 18:52:12;;;;;;;5.75;1.45;;;17.20;57.90;;;;;;10489081;28;20037;-59
2021/04/12 18:57:42;;;;;;;8.13;2.45;;;17.30;58.00;;;;;;10471564;28;20035;-59
2021/04/12 19:02:45;;;;;;;;;;;17.30;58.30;;;;;;10490178;28;20040;-60
2021/04/12 19:07:57;;;;;;;3.60;1.10;;;17.30;58.00;;;;;;10490571;28;19935;-59
2021/04/12 19:13:36;;;;;;;4.78;2.17;;;17.30;58.00;;;;;;10477478;28;20036;-60
2021/04/12 19:19:05;;;;;;;5.30;1.43;;;17.30;57.90;;;;;;10497006;28;20039;-59
2021/04/12 19:24:54;;;;;;;7.45;1.55;;;17.30;57.70;;;;;;10496851;28;20059;-59
2021/04/12 19:30:21;;;;;;;2.42;1.00;;;17.40;57.80;;;;;;10496807;28;20598;-59
2021/04/12 19:35:53;;;;;;;3.03;1.40;;;17.40;57.60;;;;;;10496638;28;20028;-59
2021/04/12 19:41:34;;;;;;;3.65;2.20;;;17.30;57.50;;;;;;10470928;28;20554;-60
2021/04/12 19:46:47;;;;;;;3.78;1.20;;;17.40;57.50;;;;;;10496213;28;20036;-59
2021/04/12 19:52:26;;;;;;;3.10;0.90;;;17.30;57.30;;;;;;10478070;28;20037;-59
2021/04/12 19:57:45;;;;;;;3.22;1.42;;;17.40;57.40;;;;;;10491673;28;20045;-60
2021/04/12 20:03:30;;;;;;;2.20;1.27;;;17.40;57.30;;;;;;10461582;28;20378;-59
2021/04/12 20:08:44;;;;;;;1.77;0.80;;;17.30;57.30;;;;;;10487903;28;20412;-59
2021/04/12 20:13:54;;;;;;;3.05;0.93;;;17.30;57.20;;;;;;10481818;28;20021;-59
2021/04/12 20:19:23;;;;;;;1.98;0.88;;;17.30;57.10;;;;;;10483128;28;20036;-59
2021/04/12 20:25:08;;;;;;;2.33;0.90;;;17.30;57.00;;;;;;10501401;28;20036;-59
2021/04/12 20:30:51;;;;;;;4.15;1.00;;;17.30;57.00;;;;;;10470681;28;20669;-59
2021/04/12 20:36:09;;;;;;;2.25;0.70;;;17.30;56.90;;;;;;10489751;28;20032;-59
2021/04/12 20:41:37;;;;;;;2.80;0.80;;;17.30;56.90;;;;;;10478392;28;20091;-59
2021/04/12 20:47:20;;;;;;;1.90;1.00;;;17.30;56.90;;;;;;10500211;28;20056;-59
2021/04/12 20:52:36;;;;;;;1.77;0.73;;;17.30;56.90;;;;;;10500605;28;20040;-59
2021/04/12 20:58:10;;;;;;;1.60;0.60;;;17.30;57.40;;;;;;10483176;28;20086;-59
2021/04/12 21:03:36;;;;;;;1.70;0.50;;;17.30;56.60;;;;;;10500228;28;20045;-59
2021/04/12 21:08:49;;;;;;;2.42;0.70;;;17.30;56.60;;;;;;10482883;28;20024;-59
2021/04/12 21:14:18;;;;;;;1.00;0.70;;;17.30;56.50;;;;;;10483163;28;20551;-59
2021/04/12 21:19:43;;;;;;;1.02;0.80;;;17.30;56.40;;;;;;10479441;28;20411;-59
2021/04/12 21:25:03;;;;;;;1.45;0.60;;;17.30;56.50;;;;;;10499197;28;20036;-59
2021/04/12 21:30:39;;;;;;;2.15;0.70;;;17.30;56.40;;;;;;10483520;28;20420;-59
2021/04/12 21:35:42;;;;;;;1.35;0.60;;;17.30;56.30;;;;;;10472125;28;20032;-59
2021/04/12 21:40:50;;;;;;;1.05;0.50;;;17.30;56.20;;;;;;10474262;28;20140;-60
2021/04/12 21:46:19;;;;;;;2.63;0.73;;;17.30;56.20;;;;;;10481218;28;20036;-60
2021/04/12 21:51:47;;;;;;;0.77;0.60;;;17.30;56.10;;;;;;10483101;28;20389;-60
2021/04/12 21:57:36;;;;;;;1.45;0.50;;;17.30;56.20;;;;;;10498274;28;20385;-60
2021/04/12 22:03:10;;;;;;;1.55;0.55;;;17.30;56.10;;;;;;10381134;28;20040;-60
2021/04/12 22:08:31;;;;;;;2.63;0.63;;;17.30;56.00;;;;;;10461410;28;20039;-59
2021/04/12 22:14:03;;;;;;;2.75;0.82;;;17.30;55.90;;;;;;10497625;28;20473;-59
2021/04/12 22:19:41;;;;;;;0.60;0.40;;;17.30;55.80;;;;;;10481069;28;20032;-59
2021/04/12 22:25:05;;;;;;;1.38;0.47;;;17.30;55.80;;;;;;10488812;28;20373;-59
2021/04/12 22:30:42;;;;;;;3.13;0.70;;;17.40;55.80;;;;;;10496693;28;20035;-60
2021/04/12 22:41:29;;;;;;;1.83;0.70;;;17.30;55.50;;;;;;10496986;28;20076;-60
2021/04/12 22:47:05;;;;;;;0.82;0.30;;;17.40;55.60;;;;;;10480218;28;20032;-60
2021/04/12 22:52:06;;;;;;;3.05;1.23;;;17.40;55.50;;;;;;10496865;28;20075;-60
2021/04/12 22:57:30;;;;;;;1.17;0.50;;;17.30;55.50;;;;;;10461951;28;20033;-60
2021/04/12 23:02:52;;;;;;;1.60;0.70;;;17.40;55.60;;;;;;10481853;28;20037;-60
2021/04/12 23:08:18;;;;;;;1.63;0.60;;;17.30;55.40;;;;;;10478442;28;20465;-64
2021/04/12 23:13:47;;;;;;;0.57;0.45;;;17.40;55.40;;;;;;10496513;28;20036;-63
2021/04/12 23:19:36;;;;;;;1.35;0.73;;;17.30;55.30;;;;;;10491259;28;20133;-63
2021/04/12 23:24:41;;;;;;;0.50;0.40;;;17.30;55.30;;;;;;10496194;28;20063;-64
2021/04/12 23:29:49;;;;;;;1.08;0.52;;;17.40;55.30;;;;;;10495991;28;20036;-63
2021/04/12 23:34:50;;;;;;;0.77;0.40;;;17.30;55.20;;;;;;10478585;28;20067;-60
2021/04/12 23:39:52;;;;;;;0.90;0.50;;;17.30;55.10;;;;;;10468178;28;20037;-59
2021/04/12 23:44:55;;;;;;;1.23;0.63;;;17.30;55.10;;;;;;10478017;28;20033;-59
2021/04/12 23:50:12;;;;;;;2.30;0.85;;;17.30;55.00;;;;;;10477322;28;20033;-60
2021/04/12 23:55:44;;;;;;;1.75;0.60;;;17.30;55.10;;;;;;10482132;28;20031;-60
